createdAt,value
2022-08-31T00:00:58.512Z,56.30
2022-08-31T00:03:44.112Z,56.40
2022-08-31T00:06:10.919Z,56.40
2022-08-31T00:08:37.727Z,56.30
2022-08-31T00:11:08.397Z,56.40
2022-08-31T00:13:37.318Z,56.50
2022-08-31T00:16:04.496Z,56.40
2022-08-31T00:18:31.568Z,56.40
2022-08-31T00:20:58.552Z,56.50
2022-08-31T00:31:01.647Z,56.70
2022-08-31T00:33:28.534Z,56.70
2022-08-31T00:35:55.376Z,56.80
2022-08-31T00:38:22.301Z,56.90
2022-08-31T00:40:49.301Z,56.70
2022-08-31T00:43:39.327Z,56.80
2022-08-31T00:46:07.789Z,56.90
2022-08-31T00:48:38.284Z,57.10
2022-08-31T00:51:05.459Z,57.00
2022-08-31T00:54:31.950Z,57.10
2022-08-31T00:56:59.790Z,57.00
2022-08-31T00:59:27.809Z,57.00
2022-08-31T01:01:55.159Z,57.00
2022-08-31T01:04:22.388Z,57.00
2022-08-31T01:06:50.578Z,57.30
2022-08-31T01:09:18.961Z,57.20
2022-08-31T01:11:46.069Z,57.10
2022-08-31T01:14:13.795Z,57.10
2022-08-31T01:16:52.961Z,57.10
2022-08-31T01:19:29.608Z,57.30
2022-08-31T01:22:28.496Z,57.40
2022-08-31T01:24:56.316Z,57.20
2022-08-31T01:27:26.679Z,57.20
2022-08-31T01:29:53.809Z,57.70
2022-08-31T01:32:20.699Z,57.40
2022-08-31T01:34:47.631Z,57.20
2022-08-31T01:37:14.804Z,57.40
2022-08-31T01:39:42.452Z,57.40
2022-08-31T01:42:09.291Z,57.60
2022-08-31T01:44:36.294Z,57.70
2022-08-31T01:47:03.356Z,57.60
2022-08-31T01:49:30.268Z,57.70
2022-08-31T01:51:57.870Z,57.60
2022-08-31T01:54:31.139Z,57.80
2022-08-31T01:56:59.056Z,57.70
2022-08-31T01:59:26.012Z,57.60
2022-08-31T02:01:54.617Z,57.60
2022-08-31T02:04:25.574Z,57.70
2022-08-31T02:06:54.871Z,57.70
2022-08-31T02:09:22.552Z,57.80
2022-08-31T02:11:50.024Z,57.70
2022-08-31T02:14:18.440Z,57.80
2022-08-31T02:16:45.865Z,57.70
2022-08-31T02:19:13.063Z,57.90
2022-08-31T02:21:40.535Z,57.90
2022-08-31T02:24:08.670Z,57.90
2022-08-31T02:26:35.611Z,58.10
2022-08-31T02:29:02.629Z,57.90
2022-08-31T02:31:29.856Z,58.00
2022-08-31T02:33:56.901Z,58.20
2022-08-31T02:36:24.496Z,58.20
2022-08-31T02:38:51.640Z,58.00
2022-08-31T02:41:19.049Z,58.20
2022-08-31T02:43:45.970Z,58.90
2022-08-31T02:46:12.885Z,58.30
2022-08-31T02:48:40.085Z,58.30
2022-08-31T02:51:10.277Z,58.30
2022-08-31T02:54:33.192Z,58.30
2022-08-31T02:57:00.599Z,58.30
2022-08-31T02:59:27.930Z,58.90
2022-08-31T03:01:55.763Z,58.50
2022-08-31T03:04:22.769Z,58.40
2022-08-31T03:06:49.711Z,58.40
2022-08-31T03:09:16.866Z,58.50
2022-08-31T03:11:44.317Z,58.50
2022-08-31T03:14:11.208Z,58.60
2022-08-31T03:16:42.004Z,58.60
2022-08-31T03:19:09.546Z,58.80
2022-08-31T03:21:36.449Z,58.70
2022-08-31T03:24:03.704Z,58.70
2022-08-31T03:26:30.451Z,59.20
2022-08-31T03:28:57.287Z,58.80
2022-08-31T03:31:25.292Z,58.90
2022-08-31T03:33:52.167Z,58.80
2022-08-31T03:36:19.038Z,58.90
2022-08-31T03:38:45.882Z,58.90
2022-08-31T03:41:21.579Z,58.90
2022-08-31T03:43:48.806Z,59.00
2022-08-31T03:46:15.739Z,59.20
2022-08-31T03:48:43.065Z,59.20
2022-08-31T03:51:10.011Z,59.10
2022-08-31T03:57:37.329Z,59.10
2022-08-31T04:00:06.207Z,59.70
2022-08-31T04:02:37.511Z,59.80
2022-08-31T04:05:05.503Z,60.20
2022-08-31T04:07:34.285Z,60.50
2022-08-31T04:10:11.188Z,60.30
2022-08-31T04:12:38.269Z,60.20
2022-08-31T04:15:06.790Z,60.20
2022-08-31T04:17:34.245Z,60.10
2022-08-31T04:20:01.113Z,60.30
2022-08-31T04:22:27.979Z,60.70
2022-08-31T04:24:54.936Z,60.50
2022-08-31T04:27:21.776Z,60.80
2022-08-31T04:29:48.742Z,60.80
2022-08-31T04:32:15.679Z,61.10
2022-08-31T04:34:42.530Z,60.90
2022-08-31T04:37:10.374Z,61.10
2022-08-31T04:39:49.406Z,61.30
2022-08-31T04:42:18.334Z,62.30
2022-08-31T04:44:45.139Z,62.90
2022-08-31T04:47:12.033Z,63.40
2022-08-31T04:49:39.287Z,63.20
2022-08-31T04:52:06.802Z,61.90
2022-08-31T04:55:05.284Z,61.10
2022-08-31T04:57:38.487Z,61.00
2022-08-31T05:00:06.421Z,61.20
2022-08-31T05:02:33.436Z,61.10
2022-08-31T05:05:01.225Z,61.40
2022-08-31T05:07:28.487Z,61.70
2022-08-31T05:09:55.616Z,61.60
2022-08-31T05:12:22.923Z,61.60
2022-08-31T05:14:49.800Z,61.90
2022-08-31T05:17:17.088Z,61.90
2022-08-31T05:19:44.019Z,61.90
2022-08-31T05:22:11.219Z,62.30
2022-08-31T05:24:39.000Z,62.30
2022-08-31T05:27:05.971Z,62.30
2022-08-31T05:29:33.023Z,62.70
2022-08-31T05:31:59.843Z,63.30
2022-08-31T05:34:26.945Z,64.20
2022-08-31T05:36:56.147Z,64.70
2022-08-31T05:39:24.122Z,65.40
2022-08-31T05:41:51.270Z,67.10
2022-08-31T05:44:21.299Z,66.70
2022-08-31T05:46:54.660Z,66.40
2022-08-31T05:49:28.651Z,66.70
2022-08-31T05:51:56.565Z,67.50
2022-08-31T05:55:20.035Z,67.50
2022-08-31T05:57:46.820Z,68.10
2022-08-31T06:00:13.876Z,68.20
2022-08-31T06:02:41.959Z,68.80
2022-08-31T06:05:09.102Z,69.50
2022-08-31T06:07:36.093Z,70.50
2022-08-31T06:10:03.586Z,76.90
2022-08-31T06:15:04.217Z,91.90
2022-08-31T06:17:32.481Z,96.90
2022-08-31T06:22:26.965Z,99.90
2022-08-31T06:24:54.805Z,99.90
2022-08-31T06:27:21.765Z,99.90
2022-08-31T06:29:49.331Z,99.90
2022-08-31T06:32:17.235Z,99.90
2022-08-31T06:34:44.183Z,99.90
2022-08-31T06:37:18.299Z,99.90
2022-08-31T06:39:45.819Z,99.90
2022-08-31T06:42:13.141Z,99.90
2022-08-31T06:44:39.926Z,99.90
2022-08-31T06:47:06.900Z,99.90
2022-08-31T06:49:33.725Z,99.90
2022-08-31T06:52:01.019Z,99.90
2022-08-31T06:54:29.895Z,99.90
2022-08-31T06:56:58.770Z,99.90
2022-08-31T06:59:28.854Z,99.90
2022-08-31T07:01:58.137Z,99.90
2022-08-31T07:04:38.512Z,99.90
2022-08-31T07:07:07.274Z,99.90
2022-08-31T07:09:34.665Z,99.90
2022-08-31T07:12:01.515Z,99.90
2022-08-31T07:14:28.361Z,99.90
2022-08-31T07:16:56.905Z,99.90
2022-08-31T07:19:25.019Z,99.90
2022-08-31T07:21:57.533Z,99.90
2022-08-31T07:24:30.474Z,99.90
2022-08-31T07:27:04.545Z,99.90
2022-08-31T07:29:40.178Z,99.90
2022-08-31T07:32:12.947Z,99.90
2022-08-31T07:34:40.197Z,99.90
2022-08-31T07:37:26.650Z,99.90
2022-08-31T07:40:12.928Z,99.90
2022-08-31T07:42:43.802Z,99.90
2022-08-31T07:45:29.161Z,99.90
2022-08-31T07:47:59.810Z,99.90
2022-08-31T07:50:27.586Z,99.90
2022-08-31T07:52:55.675Z,99.90
2022-08-31T07:56:18.634Z,99.90
2022-08-31T07:58:47.740Z,99.90
2022-08-31T08:01:15.265Z,99.90
2022-08-31T08:03:44.019Z,99.90
2022-08-31T08:06:17.803Z,99.90
2022-08-31T08:08:57.083Z,99.90
2022-08-31T08:11:39.267Z,99.90
2022-08-31T08:14:08.791Z,99.90
2022-08-31T08:16:35.879Z,99.90
2022-08-31T08:19:03.094Z,99.90
2022-08-31T08:21:30.334Z,99.90
2022-08-31T08:23:57.942Z,99.90
2022-08-31T08:26:24.786Z,99.90
2022-08-31T08:28:53.279Z,99.90
2022-08-31T08:31:25.009Z,99.90
2022-08-31T08:33:52.637Z,99.90
2022-08-31T08:36:20.008Z,99.90
2022-08-31T08:38:50.474Z,99.90
2022-08-31T08:41:26.976Z,99.90
2022-08-31T08:43:57.630Z,99.90
2022-08-31T08:47:38.430Z,99.90
2022-08-31T08:49:25.550Z,99.90
2022-08-31T08:51:56.622Z,99.90
2022-08-31T08:54:31.886Z,99.90
2022-08-31T08:57:56.954Z,99.90
2022-08-31T09:00:26.809Z,99.90
2022-08-31T09:03:27.258Z,99.90
2022-08-31T09:06:02.987Z,99.90
2022-08-31T09:09:08.518Z,99.90
2022-08-31T09:11:54.967Z,99.90
2022-08-31T09:14:47.685Z,99.90
2022-08-31T09:17:38.000Z,99.90
2022-08-31T09:20:06.665Z,99.90
2022-08-31T09:22:50.107Z,99.90
2022-08-31T09:25:26.631Z,99.90
2022-08-31T09:27:58.797Z,99.90
2022-08-31T09:30:44.545Z,99.90
2022-08-31T09:33:25.656Z,99.90
2022-08-31T09:36:13.983Z,99.90
2022-08-31T09:38:42.130Z,99.90
2022-08-31T09:41:37.585Z,99.90
2022-08-31T09:44:34.058Z,99.90
2022-08-31T09:47:14.860Z,99.90
2022-08-31T09:49:55.961Z,99.90
2022-08-31T09:52:44.934Z,99.90
2022-08-31T09:55:18.402Z,99.90
2022-08-31T09:58:41.721Z,99.90
2022-08-31T10:01:18.005Z,99.90
2022-08-31T10:03:45.619Z,99.90
2022-08-31T10:06:37.563Z,99.90
2022-08-31T10:09:10.888Z,99.90
2022-08-31T10:11:41.461Z,99.90
2022-08-31T10:14:24.251Z,99.90
2022-08-31T10:16:57.554Z,99.90
2022-08-31T10:19:38.878Z,99.90
2022-08-31T10:22:25.692Z,99.90
2022-08-31T10:25:04.298Z,99.90
2022-08-31T10:27:41.357Z,99.90
2022-08-31T10:30:11.846Z,99.90
2022-08-31T10:33:07.938Z,99.90
2022-08-31T10:35:55.114Z,99.90
2022-08-31T10:38:40.218Z,99.90
2022-08-31T10:41:10.200Z,99.90
2022-08-31T10:43:53.669Z,99.90
2022-08-31T10:46:21.066Z,99.90
2022-08-31T10:48:54.420Z,99.90
2022-08-31T10:51:43.114Z,99.90
2022-08-31T10:54:29.041Z,99.90
2022-08-31T10:57:01.585Z,99.90
2022-08-31T10:59:45.981Z,99.90
2022-08-31T11:03:00.268Z,99.90
2022-08-31T11:10:24.017Z,99.90
2022-08-31T11:12:57.852Z,99.90
2022-08-31T11:15:30.601Z,99.90
2022-08-31T11:18:40.374Z,99.90
2022-08-31T11:21:35.352Z,99.90
2022-08-31T11:24:20.702Z,99.90
2022-08-31T11:27:06.364Z,99.90
2022-08-31T11:29:58.680Z,99.90
2022-08-31T11:33:01.291Z,99.90
2022-08-31T11:35:50.033Z,99.90
2022-08-31T11:38:52.699Z,99.90
2022-08-31T11:41:49.509Z,99.90
2022-08-31T11:44:39.436Z,99.90
2022-08-31T11:47:26.701Z,99.90
2022-08-31T11:50:29.167Z,99.90
2022-08-31T11:52:56.771Z,99.90
2022-08-31T11:55:45.464Z,99.90
2022-08-31T11:58:32.655Z,99.90
2022-08-31T12:01:12.046Z,99.90
2022-08-31T12:03:43.153Z,99.90
2022-08-31T12:07:06.866Z,99.90
2022-08-31T12:09:53.041Z,99.90
2022-08-31T12:12:38.029Z,99.90
2022-08-31T12:15:38.414Z,99.90
2022-08-31T12:18:38.522Z,99.90
2022-08-31T12:21:39.287Z,99.90
2022-08-31T12:24:30.500Z,99.90
2022-08-31T12:27:16.315Z,99.90
2022-08-31T12:29:43.459Z,99.90
2022-08-31T12:32:31.317Z,99.90
2022-08-31T12:35:03.618Z,99.90
2022-08-31T12:37:35.987Z,99.90
2022-08-31T12:40:13.841Z,99.90
2022-08-31T12:43:07.682Z,99.90
2022-08-31T12:45:53.020Z,99.90
2022-08-31T12:48:37.728Z,99.90
2022-08-31T12:51:41.521Z,99.90
2022-08-31T12:54:38.032Z,99.90
2022-08-31T12:57:27.077Z,99.90
2022-08-31T13:00:12.994Z,99.90
2022-08-31T13:02:44.355Z,99.90
2022-08-31T13:05:33.497Z,99.90
2022-08-31T13:08:57.245Z,99.90
2022-08-31T13:11:41.120Z,99.90
2022-08-31T13:14:20.896Z,99.90
2022-08-31T13:17:10.365Z,99.90
2022-08-31T13:19:39.410Z,99.90
2022-08-31T13:22:17.240Z,99.90
2022-08-31T13:24:53.606Z,99.90
2022-08-31T13:27:29.793Z,99.90
2022-08-31T13:30:10.337Z,99.90
2022-08-31T13:32:40.810Z,99.90
2022-08-31T13:35:11.687Z,99.60
2022-08-31T13:38:00.292Z,99.30
2022-08-31T13:40:28.476Z,99.80
2022-08-31T13:42:58.054Z,99.10
2022-08-31T13:45:29.164Z,97.80
2022-08-31T13:48:06.190Z,97.70
2022-08-31T13:50:52.533Z,97.60
2022-08-31T13:53:39.482Z,97.00
2022-08-31T13:56:47.344Z,96.60
2022-08-31T13:59:23.704Z,95.80
2022-08-31T14:02:03.757Z,96.00
2022-08-31T14:04:43.660Z,93.50
2022-08-31T14:08:07.271Z,91.80
2022-08-31T14:10:49.581Z,90.30
2022-08-31T14:13:20.199Z,88.70
2022-08-31T14:15:58.223Z,87.00
2022-08-31T14:18:43.300Z,83.90
2022-08-31T14:21:20.690Z,82.20
2022-08-31T14:24:02.842Z,79.10
2022-08-31T14:26:41.924Z,75.20
2022-08-31T14:29:16.853Z,76.50
2022-08-31T14:31:52.398Z,74.50
2022-08-31T14:34:22.171Z,74.20
2022-08-31T14:36:57.450Z,74.70
2022-08-31T14:39:30.814Z,70.50
2022-08-31T14:42:07.325Z,71.50
2022-08-31T14:44:39.853Z,71.00
2022-08-31T14:47:09.678Z,72.20
2022-08-31T14:49:37.029Z,70.90
2022-08-31T14:52:06.219Z,69.10
2022-08-31T14:54:35.304Z,70.30
2022-08-31T14:57:06.201Z,70.00
2022-08-31T14:59:34.927Z,71.00
2022-08-31T15:02:02.254Z,68.80
2022-08-31T15:04:31.636Z,68.60
2022-08-31T15:07:18.475Z,68.60
2022-08-31T15:09:47.950Z,69.70
2022-08-31T15:12:17.203Z,70.80
2022-08-31T15:15:42.894Z,70.70
2022-08-31T15:18:14.578Z,70.90
2022-08-31T15:21:44.565Z,69.70
2022-08-31T15:24:12.478Z,69.10
2022-08-31T15:26:42.847Z,69.90
2022-08-31T15:34:09.992Z,67.40
2022-08-31T15:36:37.162Z,65.70
2022-08-31T15:39:04.617Z,65.60
2022-08-31T15:41:31.711Z,66.70
2022-08-31T15:43:58.689Z,66.60
2022-08-31T15:46:44.205Z,68.70
2022-08-31T15:49:11.252Z,66.70
2022-08-31T15:51:50.239Z,67.10
2022-08-31T15:54:22.484Z,66.60
2022-08-31T15:56:54.026Z,65.60
2022-08-31T15:59:24.893Z,64.90
2022-08-31T16:01:52.907Z,65.80
2022-08-31T16:04:23.675Z,65.50
2022-08-31T16:06:51.871Z,63.80
2022-08-31T16:09:21.274Z,64.20
2022-08-31T16:11:49.645Z,62.70
2022-08-31T16:14:17.868Z,64.30
2022-08-31T16:16:47.768Z,63.80
2022-08-31T16:19:34.075Z,63.50
2022-08-31T16:22:02.968Z,63.20
2022-08-31T16:24:35.096Z,63.70
2022-08-31T16:27:02.672Z,63.80
2022-08-31T16:30:26.243Z,62.80
2022-08-31T16:32:53.309Z,62.50
2022-08-31T16:35:20.122Z,63.00
2022-08-31T16:37:47.330Z,63.00
2022-08-31T16:40:14.306Z,63.40
2022-08-31T16:42:43.145Z,62.80
2022-08-31T16:45:10.912Z,62.70
2022-08-31T16:47:37.732Z,61.80
2022-08-31T16:50:09.091Z,62.00
2022-08-31T16:52:36.672Z,62.90
2022-08-31T16:55:04.665Z,62.20
2022-08-31T16:57:32.660Z,62.00
2022-08-31T17:00:56.355Z,64.20
2022-08-31T17:03:23.281Z,63.30
2022-08-31T17:05:52.703Z,62.80
2022-08-31T17:08:20.039Z,62.70
2022-08-31T17:10:49.835Z,62.60
2022-08-31T17:13:16.809Z,63.80
2022-08-31T17:15:44.162Z,65.80
2022-08-31T17:18:11.571Z,65.60
2022-08-31T17:20:40.113Z,65.60
2022-08-31T17:23:07.212Z,67.40
2022-08-31T17:25:37.277Z,66.60
2022-08-31T17:28:07.912Z,66.90
2022-08-31T17:35:38.376Z,67.50
2022-08-31T17:38:05.314Z,69.30
2022-08-31T17:40:32.218Z,68.40
2022-08-31T17:43:00.059Z,69.40
2022-08-31T17:45:27.594Z,70.60
2022-08-31T17:47:54.958Z,70.40
2022-08-31T17:50:22.268Z,70.80
2022-08-31T17:52:49.310Z,71.60
2022-08-31T17:55:16.262Z,72.70
2022-08-31T17:57:44.536Z,73.60
2022-08-31T18:00:14.788Z,72.90
2022-08-31T18:02:42.039Z,73.00
2022-08-31T18:05:12.058Z,73.50
2022-08-31T18:07:40.670Z,74.30
2022-08-31T18:10:08.111Z,77.80
2022-08-31T18:12:40.956Z,76.60
2022-08-31T18:15:10.033Z,77.20
2022-08-31T18:17:36.885Z,79.50
2022-08-31T18:20:04.369Z,78.30
2022-08-31T18:22:31.229Z,79.30
2022-08-31T18:24:58.277Z,79.80
2022-08-31T18:27:25.234Z,81.30
2022-08-31T18:29:52.813Z,81.10
2022-08-31T18:33:15.977Z,82.10
2022-08-31T18:35:46.049Z,83.40
2022-08-31T18:38:13.274Z,83.30
2022-08-31T18:40:59.367Z,82.60
2022-08-31T18:43:44.930Z,82.20
2022-08-31T18:46:11.817Z,83.20
2022-08-31T18:48:40.153Z,84.40
2022-08-31T18:51:09.658Z,85.10
2022-08-31T18:53:37.222Z,85.20
2022-08-31T18:56:11.758Z,87.40
2022-08-31T18:58:39.234Z,88.50
2022-08-31T19:01:11.181Z,86.90
2022-08-31T19:03:39.550Z,86.90
2022-08-31T19:06:07.905Z,89.80
2022-08-31T19:08:35.188Z,89.80
2022-08-31T19:11:07.111Z,90.70
2022-08-31T19:13:34.731Z,90.10
2022-08-31T19:16:10.714Z,90.80
2022-08-31T19:18:44.170Z,90.80
2022-08-31T19:21:29.010Z,91.00
2022-08-31T19:23:57.369Z,91.50
2022-08-31T19:26:36.050Z,92.20
2022-08-31T19:29:09.430Z,92.30
2022-08-31T19:31:38.605Z,92.70
2022-08-31T19:34:06.593Z,92.70
2022-08-31T19:36:38.209Z,91.90
2022-08-31T19:39:07.428Z,92.30
2022-08-31T19:41:35.037Z,92.40
2022-08-31T19:44:08.239Z,92.40
2022-08-31T19:46:39.967Z,92.10
2022-08-31T19:49:11.056Z,91.80
2022-08-31T19:51:43.810Z,90.90
2022-08-31T19:54:14.634Z,91.40
2022-08-31T19:56:42.990Z,90.90
2022-08-31T19:59:11.469Z,91.00
2022-08-31T20:01:39.774Z,90.90
2022-08-31T20:04:09.519Z,91.00
2022-08-31T20:06:41.890Z,90.40
2022-08-31T20:09:10.767Z,90.40
2022-08-31T20:11:38.666Z,90.60
2022-08-31T20:14:09.088Z,90.90
2022-08-31T20:16:41.845Z,90.80
2022-08-31T20:19:14.148Z,90.60
2022-08-31T20:21:42.128Z,90.80
2022-08-31T20:24:12.761Z,90.40
2022-08-31T20:26:51.470Z,90.70
2022-08-31T20:29:20.294Z,90.50
2022-08-31T20:31:50.485Z,90.70
2022-08-31T20:34:20.395Z,90.50
2022-08-31T20:37:44.034Z,90.50
2022-08-31T20:40:16.861Z,90.70
2022-08-31T20:42:46.619Z,90.90
2022-08-31T20:45:13.626Z,90.30
2022-08-31T20:47:59.811Z,89.60
2022-08-31T20:50:31.765Z,89.90
2022-08-31T20:53:02.086Z,90.00
2022-08-31T20:55:29.492Z,90.40
2022-08-31T20:58:00.787Z,90.10
2022-08-31T21:00:30.541Z,90.60
2022-08-31T21:02:58.231Z,89.60
2022-08-31T21:05:41.078Z,89.40
2022-08-31T21:08:09.400Z,88.70
2022-08-31T21:10:40.310Z,89.60
2022-08-31T21:13:10.070Z,89.30
2022-08-31T21:15:45.095Z,89.40
2022-08-31T21:18:17.801Z,87.90
2022-08-31T21:20:46.813Z,88.20
2022-08-31T21:23:16.874Z,88.20
2022-08-31T21:25:45.819Z,87.80
2022-08-31T21:28:17.221Z,88.10
2022-08-31T21:30:47.203Z,88.40
2022-08-31T21:33:14.208Z,87.80
2022-08-31T21:35:41.482Z,88.40
2022-08-31T21:42:53.555Z,89.00
2022-08-31T21:45:20.949Z,88.00
2022-08-31T21:47:47.823Z,87.50
2022-08-31T21:50:14.823Z,87.80
2022-08-31T21:52:41.697Z,86.30
2022-08-31T21:55:13.388Z,87.80
2022-08-31T21:57:40.936Z,86.90
2022-08-31T22:00:14.007Z,87.20
2022-08-31T22:02:46.909Z,86.40
2022-08-31T22:05:14.229Z,85.70
2022-08-31T22:07:41.295Z,86.60
2022-08-31T22:10:08.996Z,86.50
2022-08-31T22:12:35.819Z,85.60
2022-08-31T22:15:05.311Z,87.00
2022-08-31T22:17:55.754Z,86.70
2022-08-31T22:20:19.925Z,87.10
2022-08-31T22:22:47.144Z,87.20
2022-08-31T22:25:15.266Z,87.30
2022-08-31T22:27:43.086Z,87.30
2022-08-31T22:30:11.195Z,87.00
2022-08-31T22:32:38.018Z,88.10
2022-08-31T22:35:05.272Z,88.40
2022-08-31T22:38:29.109Z,88.00
2022-08-31T22:40:56.344Z,88.50
2022-08-31T22:43:23.331Z,88.60
2022-08-31T22:45:51.516Z,87.90
2022-08-31T22:48:18.571Z,88.90
2022-08-31T22:50:45.648Z,88.60
2022-08-31T22:53:12.720Z,88.30
2022-08-31T22:55:41.292Z,88.10
2022-08-31T22:58:09.237Z,89.60
2022-08-31T23:00:36.770Z,88.70
2022-08-31T23:03:04.455Z,87.90
2022-08-31T23:05:31.526Z,88.70
2022-08-31T23:07:58.447Z,88.30
2022-08-31T23:10:25.231Z,88.00
2022-08-31T23:12:52.195Z,88.00
2022-08-31T23:15:22.939Z,87.80
2022-08-31T23:17:51.611Z,87.90
2022-08-31T23:20:24.240Z,90.10
2022-08-31T23:22:53.192Z,88.50
2022-08-31T23:25:22.687Z,89.60
2022-08-31T23:27:51.171Z,87.90
2022-08-31T23:30:20.392Z,87.30
2022-08-31T23:32:48.794Z,88.00
2022-08-31T23:35:18.519Z,89.10
2022-08-31T23:38:10.321Z,88.60
2022-08-31T23:40:37.326Z,88.50
2022-08-31T23:55:00.474Z,90.40
2022-08-31T23:57:32.208Z,90.20
